sensor_id;sensor_type;location;lat;lon;timestamp;temperature;humidity
2022;DHT22;1015;49.756;6.994;2022-09-23T00:00:12;3.80;99.90
2022;DHT22;1015;49.756;6.994;2022-09-23T00:02:39;4.10;99.90
2022;DHT22;1015;49.756;6.994;2022-09-23T00:05:08;4.20;99.90
2022;DHT22;1015;49.756;6.994;2022-09-23T00:07:35;4.00;99.90
2022;DHT22;1015;49.756;6.994;2022-09-23T00:10:05;4.10;99.90
2022;DHT22;1015;49.756;6.994;2022-09-23T00:12:32;4.20;99.90
2022;DHT22;1015;49.756;6.994;2022-09-23T00:14:59;4.10;99.90
2022;DHT22;1015;49.756;6.994;2022-09-23T00:17:26;4.20;99.90
2022;DHT22;1015;49.756;6.994;2022-09-23T00:19:53;4.10;99.90
2022;DHT22;1015;49.756;6.994;2022-09-23T00:22:20;4.10;99.90
2022;DHT22;1015;49.756;6.994;2022-09-23T00:24:47;4.10;99.90
2022;DHT22;1015;49.756;6.994;2022-09-23T00:27:16;4.20;99.90
2022;DHT22;1015;49.756;6.994;2022-09-23T00:29:45;4.20;99.90
2022;DHT22;1015;49.756;6.994;2022-09-23T00:32:12;4.10;99.90
2022;DHT22;1015;49.756;6.994;2022-09-23T00:34:39;4.10;99.90
2022;DHT22;1015;49.756;6.994;2022-09-23T00:37:06;4.10;99.90
2022;DHT22;1015;49.756;6.994;2022-09-23T00:39:33;3.90;99.90
2022;DHT22;1015;49.756;6.994;2022-09-23T00:42:00;3.90;99.90
2022;DHT22;1015;49.756;6.994;2022-09-23T00:44:46;3.80;99.90
2022;DHT22;1015;49.756;6.994;2022-09-23T00:47:18;3.90;99.90
2022;DHT22;1015;49.756;6.994;2022-09-23T00:49:49;3.70;99.90
2022;DHT22;1015;49.756;6.994;2022-09-23T00:52:18;3.70;99.90
2022;DHT22;1015;49.756;6.994;2022-09-23T00:54:46;3.70;99.90
2022;DHT22;1015;49.756;6.994;2022-09-23T00:57:15;3.70;99.90
2022;DHT22;1015;49.756;6.994;2022-09-23T00:59:47;3.80;99.90
2022;DHT22;1015;49.756;6.994;2022-09-23T01:02:15;3.80;99.90
2022;DHT22;1015;49.756;6.994;2022-09-23T01:04:42;3.70;99.90
2022;DHT22;1015;49.756;6.994;2022-09-23T01:07:10;3.90;99.90
2022;DHT22;1015;49.756;6.994;2022-09-23T01:09:38;3.90;99.90
2022;DHT22;1015;49.756;6.994;2022-09-23T01:12:11;3.90;99.90
2022;DHT22;1015;49.756;6.994;2022-09-23T01:14:50;4.00;99.90
2022;DHT22;1015;49.756;6.994;2022-09-23T01:17:25;3.90;99.90
2022;DHT22;1015;49.756;6.994;2022-09-23T01:20:20;3.90;99.90
2022;DHT22;1015;49.756;6.994;2022-09-23T01:22:57;4.00;99.90
2022;DHT22;1015;49.756;6.994;2022-09-23T01:25:44;3.90;99.90
2022;DHT22;1015;49.756;6.994;2022-09-23T01:28:33;4.00;99.90
2022;DHT22;1015;49.756;6.994;2022-09-23T01:31:08;4.00;99.90
2022;DHT22;1015;49.756;6.994;2022-09-23T01:33:48;3.90;99.90
2022;DHT22;1015;49.756;6.994;2022-09-23T01:36:21;3.90;99.90
2022;DHT22;1015;49.756;6.994;2022-09-23T01:38:54;3.90;99.90
2022;DHT22;1015;49.756;6.994;2022-09-23T01:41:44;4.00;99.90
2022;DHT22;1015;49.756;6.994;2022-09-23T01:44:17;3.90;99.90
2022;DHT22;1015;49.756;6.994;2022-09-23T01:46:49;3.70;99.90
2022;DHT22;1015;49.756;6.994;2022-09-23T01:49:21;3.90;99.90
2022;DHT22;1015;49.756;6.994;2022-09-23T01:51:57;3.90;99.90
2022;DHT22;1015;49.756;6.994;2022-09-23T01:54:29;3.90;99.90
2022;DHT22;1015;49.756;6.994;2022-09-23T01:57:01;3.90;99.90
2022;DHT22;1015;49.756;6.994;2022-09-23T01:59:33;4.10;99.90
2022;DHT22;1015;49.756;6.994;2022-09-23T02:02:07;4.00;99.90
2022;DHT22;1015;49.756;6.994;2022-09-23T02:04:40;3.90;99.90
2022;DHT22;1015;49.756;6.994;2022-09-23T02:07:18;4.00;99.90
2022;DHT22;1015;49.756;6.994;2022-09-23T02:09:51;3.90;99.90
2022;DHT22;1015;49.756;6.994;2022-09-23T02:12:20;4.10;99.90
2022;DHT22;1015;49.756;6.994;2022-09-23T02:14:53;4.20;99.90
2022;DHT22;1015;49.756;6.994;2022-09-23T02:17:26;4.10;99.90
2022;DHT22;1015;49.756;6.994;2022-09-23T02:19:58;4.40;99.90
2022;DHT22;1015;49.756;6.994;2022-09-23T02:22:31;4.30;99.90
2022;DHT22;1015;49.756;6.994;2022-09-23T02:25:00;4.40;99.90
2022;DHT22;1015;49.756;6.994;2022-09-23T02:27:31;4.20;99.90
2022;DHT22;1015;49.756;6.994;2022-09-23T02:30:04;4.20;99.90
2022;DHT22;1015;49.756;6.994;2022-09-23T02:32:41;4.00;99.90
2022;DHT22;1015;49.756;6.994;2022-09-23T02:35:17;3.80;99.90
2022;DHT22;1015;49.756;6.994;2022-09-23T02:37:52;3.70;99.90
2022;DHT22;1015;49.756;6.994;2022-09-23T02:40:24;3.60;99.90
2022;DHT22;1015;49.756;6.994;2022-09-23T02:43:00;3.40;99.90
2022;DHT22;1015;49.756;6.994;2022-09-23T02:45:28;3.40;99.90
2022;DHT22;1015;49.756;6.994;2022-09-23T02:48:01;3.30;99.90
2022;DHT22;1015;49.756;6.994;2022-09-23T02:50:30;3.30;99.90
2022;DHT22;1015;49.756;6.994;2022-09-23T02:52:59;3.20;99.90
2022;DHT22;1015;49.756;6.994;2022-09-23T02:55:29;3.20;99.90
2022;DHT22;1015;49.756;6.994;2022-09-23T02:57:57;3.10;99.90
2022;DHT22;1015;49.756;6.994;2022-09-23T03:00:30;3.30;99.90
2022;DHT22;1015;49.756;6.994;2022-09-23T03:03:14;3.30;99.90
2022;DHT22;1015;49.756;6.994;2022-09-23T03:05:48;3.40;99.90
2022;DHT22;1015;49.756;6.994;2022-09-23T03:08:31;3.40;99.90
2022;DHT22;1015;49.756;6.994;2022-09-23T03:11:05;3.30;99.90
2022;DHT22;1015;49.756;6.994;2022-09-23T03:13:45;3.30;99.90
2022;DHT22;1015;49.756;6.994;2022-09-23T03:16:23;3.20;99.90
2022;DHT22;1015;49.756;6.994;2022-09-23T03:18:57;3.20;99.90
2022;DHT22;1015;49.756;6.994;2022-09-23T03:21:36;3.20;99.90
2022;DHT22;1015;49.756;6.994;2022-09-23T03:24:06;3.30;99.90
2022;DHT22;1015;49.756;6.994;2022-09-23T03:26:36;3.50;99.90
2022;DHT22;1015;49.756;6.994;2022-09-23T03:29:06;3.70;99.90
2022;DHT22;1015;49.756;6.994;2022-09-23T03:31:36;3.60;99.90
2022;DHT22;1015;49.756;6.994;2022-09-23T03:34:10;3.40;99.90
2022;DHT22;1015;49.756;6.994;2022-09-23T03:36:44;3.40;99.90
2022;DHT22;1015;49.756;6.994;2022-09-23T03:39:25;3.40;99.90
2022;DHT22;1015;49.756;6.994;2022-09-23T03:41:56;3.40;99.90
2022;DHT22;1015;49.756;6.994;2022-09-23T03:44:24;3.20;99.90
2022;DHT22;1015;49.756;6.994;2022-09-23T03:46:53;3.10;99.90
2022;DHT22;1015;49.756;6.994;2022-09-23T03:49:26;3.20;99.90
2022;DHT22;1015;49.756;6.994;2022-09-23T03:51:53;2.90;99.90
2022;DHT22;1015;49.756;6.994;2022-09-23T03:54:20;2.70;99.90
2022;DHT22;1015;49.756;6.994;2022-09-23T03:56:47;2.70;99.90
2022;DHT22;1015;49.756;6.994;2022-09-23T03:59:15;2.70;99.90
2022;DHT22;1015;49.756;6.994;2022-09-23T04:01:42;2.80;99.90
2022;DHT22;1015;49.756;6.994;2022-09-23T04:04:10;2.80;99.90
2022;DHT22;1015;49.756;6.994;2022-09-23T04:06:39;2.90;99.90
2022;DHT22;1015;49.756;6.994;2022-09-23T04:09:06;2.90;99.90
2022;DHT22;1015;49.756;6.994;2022-09-23T04:11:32;3.00;99.90
2022;DHT22;1015;49.756;6.994;2022-09-23T04:14:00;2.90;99.90
2022;DHT22;1015;49.756;6.994;2022-09-23T04:16:27;3.30;99.90
2022;DHT22;1015;49.756;6.994;2022-09-23T04:18:54;3.10;99.90
2022;DHT22;1015;49.756;6.994;2022-09-23T04:21:20;2.80;99.90
2022;DHT22;1015;49.756;6.994;2022-09-23T04:23:49;2.90;99.90
2022;DHT22;1015;49.756;6.994;2022-09-23T04:26:16;3.00;99.90
2022;DHT22;1015;49.756;6.994;2022-09-23T04:28:43;3.10;99.90
2022;DHT22;1015;49.756;6.994;2022-09-23T04:31:10;3.10;99.90
2022;DHT22;1015;49.756;6.994;2022-09-23T04:33:37;3.00;99.90
2022;DHT22;1015;49.756;6.994;2022-09-23T04:36:04;2.90;99.90
2022;DHT22;1015;49.756;6.994;2022-09-23T04:38:31;2.90;99.90
2022;DHT22;1015;49.756;6.994;2022-09-23T04:41:00;2.90;99.90
2022;DHT22;1015;49.756;6.994;2022-09-23T04:43:27;3.10;99.90
2022;DHT22;1015;49.756;6.994;2022-09-23T04:45:57;3.10;99.90
2022;DHT22;1015;49.756;6.994;2022-09-23T04:48:25;2.90;99.90
2022;DHT22;1015;49.756;6.994;2022-09-23T04:50:52;2.80;99.90
2022;DHT22;1015;49.756;6.994;2022-09-23T04:53:19;2.90;99.90
2022;DHT22;1015;49.756;6.994;2022-09-23T04:55:47;2.90;99.90
2022;DHT22;1015;49.756;6.994;2022-09-23T04:58:18;3.00;99.90
2022;DHT22;1015;49.756;6.994;2022-09-23T05:00:47;2.90;99.90
2022;DHT22;1015;49.756;6.994;2022-09-23T05:03:14;2.90;99.90
2022;DHT22;1015;49.756;6.994;2022-09-23T05:05:41;2.90;99.90
2022;DHT22;1015;49.756;6.994;2022-09-23T05:08:08;3.10;99.90
2022;DHT22;1015;49.756;6.994;2022-09-23T05:10:35;3.00;99.90
2022;DHT22;1015;49.756;6.994;2022-09-23T05:13:02;2.90;99.90
2022;DHT22;1015;49.756;6.994;2022-09-23T05:15:31;2.90;99.90
2022;DHT22;1015;49.756;6.994;2022-09-23T05:17:58;2.70;99.90
2022;DHT22;1015;49.756;6.994;2022-09-23T05:20:27;2.70;99.90
2022;DHT22;1015;49.756;6.994;2022-09-23T05:22:54;2.70;99.90
2022;DHT22;1015;49.756;6.994;2022-09-23T05:25:21;2.80;99.90
2022;DHT22;1015;49.756;6.994;2022-09-23T05:27:49;2.70;99.90
2022;DHT22;1015;49.756;6.994;2022-09-23T05:30:16;2.70;99.90
2022;DHT22;1015;49.756;6.994;2022-09-23T05:32:45;2.70;99.90
2022;DHT22;1015;49.756;6.994;2022-09-23T05:35:12;2.80;99.90
2022;DHT22;1015;49.756;6.994;2022-09-23T05:37:38;3.00;99.90
2022;DHT22;1015;49.756;6.994;2022-09-23T05:40:06;2.90;99.90
2022;DHT22;1015;49.756;6.994;2022-09-23T05:42:33;3.10;99.90
2022;DHT22;1015;49.756;6.994;2022-09-23T05:45:00;3.10;99.90
2022;DHT22;1015;49.756;6.994;2022-09-23T05:47:27;3.10;99.90
2022;DHT22;1015;49.756;6.994;2022-09-23T05:49:56;3.00;99.90
2022;DHT22;1015;49.756;6.994;2022-09-23T05:52:22;3.00;99.90
2022;DHT22;1015;49.756;6.994;2022-09-23T05:54:50;3.00;99.90
2022;DHT22;1015;49.756;6.994;2022-09-23T05:57:18;3.10;99.90
2022;DHT22;1015;49.756;6.994;2022-09-23T05:59:46;3.40;99.90
2022;DHT22;1015;49.756;6.994;2022-09-23T06:02:13;3.50;99.90
2022;DHT22;1015;49.756;6.994;2022-09-23T06:04:40;3.80;99.90
2022;DHT22;1015;49.756;6.994;2022-09-23T06:07:08;3.50;99.90
2022;DHT22;1015;49.756;6.994;2022-09-23T06:09:36;3.50;99.90
2022;DHT22;1015;49.756;6.994;2022-09-23T06:12:03;3.60;99.90
2022;DHT22;1015;49.756;6.994;2022-09-23T06:14:30;3.70;99.90
2022;DHT22;1015;49.756;6.994;2022-09-23T06:16:57;3.90;99.90
2022;DHT22;1015;49.756;6.994;2022-09-23T06:19:24;4.00;99.90
2022;DHT22;1015;49.756;6.994;2022-09-23T06:21:51;4.20;99.90
2022;DHT22;1015;49.756;6.994;2022-09-23T06:24:20;4.50;99.90
2022;DHT22;1015;49.756;6.994;2022-09-23T06:26:47;4.60;99.90
2022;DHT22;1015;49.756;6.994;2022-09-23T06:29:14;4.70;99.90
2022;DHT22;1015;49.756;6.994;2022-09-23T06:31:42;4.80;99.90
2022;DHT22;1015;49.756;6.994;2022-09-23T06:34:10;4.80;99.90
2022;DHT22;1015;49.756;6.994;2022-09-23T06:36:38;5.00;99.90
2022;DHT22;1015;49.756;6.994;2022-09-23T06:39:05;5.10;99.90
2022;DHT22;1015;49.756;6.994;2022-09-23T06:41:34;5.30;99.90
2022;DHT22;1015;49.756;6.994;2022-09-23T06:44:02;5.50;99.90
2022;DHT22;1015;49.756;6.994;2022-09-23T06:46:29;5.60;99.90
2022;DHT22;1015;49.756;6.994;2022-09-23T06:48:56;5.70;99.90
2022;DHT22;1015;49.756;6.994;2022-09-23T06:51:23;5.80;99.90
2022;DHT22;1015;49.756;6.994;2022-09-23T06:53:50;5.90;99.90
2022;DHT22;1015;49.756;6.994;2022-09-23T06:56:17;6.10;99.90
2022;DHT22;1015;49.756;6.994;2022-09-23T06:58:48;6.30;99.90
2022;DHT22;1015;49.756;6.994;2022-09-23T07:01:17;6.40;99.90
2022;DHT22;1015;49.756;6.994;2022-09-23T07:03:44;6.60;99.90
2022;DHT22;1015;49.756;6.994;2022-09-23T07:06:12;6.90;99.90
2022;DHT22;1015;49.756;6.994;2022-09-23T07:08:42;7.10;99.90
2022;DHT22;1015;49.756;6.994;2022-09-23T07:11:11;7.30;99.90
2022;DHT22;1015;49.756;6.994;2022-09-23T07:13:38;7.40;99.90
2022;DHT22;1015;49.756;6.994;2022-09-23T07:16:09;7.50;99.90
2022;DHT22;1015;49.756;6.994;2022-09-23T07:18:36;7.70;99.90
2022;DHT22;1015;49.756;6.994;2022-09-23T07:21:06;7.80;99.90
2022;DHT22;1015;49.756;6.994;2022-09-23T07:23:33;7.90;99.90
2022;DHT22;1015;49.756;6.994;2022-09-23T07:26:02;8.10;99.90
2022;DHT22;1015;49.756;6.994;2022-09-23T07:28:29;8.30;99.90
2022;DHT22;1015;49.756;6.994;2022-09-23T07:31:02;8.40;99.90
2022;DHT22;1015;49.756;6.994;2022-09-23T07:33:30;8.70;99.90
2022;DHT22;1015;49.756;6.994;2022-09-23T07:36:02;8.90;99.90
2022;DHT22;1015;49.756;6.994;2022-09-23T07:38:29;9.20;99.90
2022;DHT22;1015;49.756;6.994;2022-09-23T07:41:00;9.30;99.90
2022;DHT22;1015;49.756;6.994;2022-09-23T07:43:28;9.50;99.90
2022;DHT22;1015;49.756;6.994;2022-09-23T07:45:58;9.70;99.90
2022;DHT22;1015;49.756;6.994;2022-09-23T07:48:24;9.80;99.90
2022;DHT22;1015;49.756;6.994;2022-09-23T07:50:53;10.00;99.90
2022;DHT22;1015;49.756;6.994;2022-09-23T07:53:20;10.10;99.90
2022;DHT22;1015;49.756;6.994;2022-09-23T07:55:51;10.30;99.90
2022;DHT22;1015;49.756;6.994;2022-09-23T07:58:18;10.50;99.90
2022;DHT22;1015;49.756;6.994;2022-09-23T08:00:45;10.50;99.90
2022;DHT22;1015;49.756;6.994;2022-09-23T08:03:13;10.80;99.90
2022;DHT22;1015;49.756;6.994;2022-09-23T08:05:40;11.00;99.90
2022;DHT22;1015;49.756;6.994;2022-09-23T08:08:08;11.20;99.90
2022;DHT22;1015;49.756;6.994;2022-09-23T08:10:35;11.30;99.90
2022;DHT22;1015;49.756;6.994;2022-09-23T08:13:02;11.50;99.90
2022;DHT22;1015;49.756;6.994;2022-09-23T08:15:29;11.70;99.90
2022;DHT22;1015;49.756;6.994;2022-09-23T08:17:57;11.80;99.90
2022;DHT22;1015;49.756;6.994;2022-09-23T08:20:25;12.00;99.90
2022;DHT22;1015;49.756;6.994;2022-09-23T08:23:13;12.20;99.90
2022;DHT22;1015;49.756;6.994;2022-09-23T08:25:41;12.50;99.90
2022;DHT22;1015;49.756;6.994;2022-09-23T08:28:09;12.70;99.90
2022;DHT22;1015;49.756;6.994;2022-09-23T08:30:41;12.80;99.90
2022;DHT22;1015;49.756;6.994;2022-09-23T08:33:08;13.00;99.90
2022;DHT22;1015;49.756;6.994;2022-09-23T08:35:35;13.20;99.90
2022;DHT22;1015;49.756;6.994;2022-09-23T08:38:02;13.30;99.90
2022;DHT22;1015;49.756;6.994;2022-09-23T08:40:33;13.40;99.90
2022;DHT22;1015;49.756;6.994;2022-09-23T08:43:00;13.60;99.90
2022;DHT22;1015;49.756;6.994;2022-09-23T08:45:27;13.70;99.90
2022;DHT22;1015;49.756;6.994;2022-09-23T08:47:57;13.80;99.90
2022;DHT22;1015;49.756;6.994;2022-09-23T08:50:29;13.80;99.90
2022;DHT22;1015;49.756;6.994;2022-09-23T08:53:02;13.70;99.90
2022;DHT22;1015;49.756;6.994;2022-09-23T08:55:36;13.90;99.90
2022;DHT22;1015;49.756;6.994;2022-09-23T08:58:16;14.00;99.90
2022;DHT22;1015;49.756;6.994;2022-09-23T09:00:54;14.10;99.90
2022;DHT22;1015;49.756;6.994;2022-09-23T09:03:33;14.10;99.90
2022;DHT22;1015;49.756;6.994;2022-09-23T09:06:00;14.20;99.90
2022;DHT22;1015;49.756;6.994;2022-09-23T09:08:32;14.40;99.90
2022;DHT22;1015;49.756;6.994;2022-09-23T09:11:02;14.50;99.90
2022;DHT22;1015;49.756;6.994;2022-09-23T09:13:34;14.70;99.90
2022;DHT22;1015;49.756;6.994;2022-09-23T09:16:14;14.70;99.90
2022;DHT22;1015;49.756;6.994;2022-09-23T09:18:50;14.60;99.90
2022;DHT22;1015;49.756;6.994;2022-09-23T09:21:20;14.70;99.90
2022;DHT22;1015;49.756;6.994;2022-09-23T09:23:53;14.90;99.90
2022;DHT22;1015;49.756;6.994;2022-09-23T09:26:24;14.90;99.90
2022;DHT22;1015;49.756;6.994;2022-09-23T09:28:55;15.10;99.90
2022;DHT22;1015;49.756;6.994;2022-09-23T09:31:28;15.00;99.90
2022;DHT22;1015;49.756;6.994;2022-09-23T09:34:09;15.20;99.90
2022;DHT22;1015;49.756;6.994;2022-09-23T09:36:45;15.50;99.90
2022;DHT22;1015;49.756;6.994;2022-09-23T09:39:14;15.50;99.90
2022;DHT22;1015;49.756;6.994;2022-09-23T09:41:46;15.50;99.90
2022;DHT22;1015;49.756;6.994;2022-09-23T09:44:21;15.50;99.90
2022;DHT22;1015;49.756;6.994;2022-09-23T09:46:59;15.60;99.90
2022;DHT22;1015;49.756;6.994;2022-09-23T09:49:33;15.70;99.90
2022;DHT22;1015;49.756;6.994;2022-09-23T09:52:13;15.80;99.90
2022;DHT22;1015;49.756;6.994;2022-09-23T09:54:41;15.50;99.90
2022;DHT22;1015;49.756;6.994;2022-09-23T09:57:17;15.30;99.90
2022;DHT22;1015;49.756;6.994;2022-09-23T09:59:45;14.80;99.90
2022;DHT22;1015;49.756;6.994;2022-09-23T10:02:18;14.80;99.90
2022;DHT22;1015;49.756;6.994;2022-09-23T10:04:55;14.70;99.90
2022;DHT22;1015;49.756;6.994;2022-09-23T10:07:26;14.90;99.90
2022;DHT22;1015;49.756;6.994;2022-09-23T10:09:53;15.10;99.90
2022;DHT22;1015;49.756;6.994;2022-09-23T10:12:23;15.40;99.90
2022;DHT22;1015;49.756;6.994;2022-09-23T10:14:52;15.40;99.90
2022;DHT22;1015;49.756;6.994;2022-09-23T10:17:22;15.30;99.90
2022;DHT22;1015;49.756;6.994;2022-09-23T10:19:53;15.00;99.90
2022;DHT22;1015;49.756;6.994;2022-09-23T10:22:27;15.10;99.90
2022;DHT22;1015;49.756;6.994;2022-09-23T10:24:59;15.10;99.90
2022;DHT22;1015;49.756;6.994;2022-09-23T10:27:30;15.60;99.90
2022;DHT22;1015;49.756;6.994;2022-09-23T10:30:00;15.60;99.90
2022;DHT22;1015;49.756;6.994;2022-09-23T10:32:30;15.30;99.90
2022;DHT22;1015;49.756;6.994;2022-09-23T10:35:02;15.50;99.90
2022;DHT22;1015;49.756;6.994;2022-09-23T10:37:32;15.80;99.90
2022;DHT22;1015;49.756;6.994;2022-09-23T10:40:18;15.90;99.90
2022;DHT22;1015;49.756;6.994;2022-09-23T10:43:22;15.70;99.90
2022;DHT22;1015;49.756;6.994;2022-09-23T10:46:16;15.70;99.90
2022;DHT22;1015;49.756;6.994;2022-09-23T10:49:25;15.60;99.90
2022;DHT22;1015;49.756;6.994;2022-09-23T10:52:10;15.60;99.90
2022;DHT22;1015;49.756;6.994;2022-09-23T10:54:53;15.70;99.90
2022;DHT22;1015;49.756;6.994;2022-09-23T10:57:34;16.00;99.90
2022;DHT22;1015;49.756;6.994;2022-09-23T11:00:19;15.70;99.90
2022;DHT22;1015;49.756;6.994;2022-09-23T11:03:10;15.60;99.90
2022;DHT22;1015;49.756;6.994;2022-09-23T11:05:49;15.30;99.90
2022;DHT22;1015;49.756;6.994;2022-09-23T11:08:38;15.80;99.90
2022;DHT22;1015;49.756;6.994;2022-09-23T11:11:20;15.90;99.90
2022;DHT22;1015;49.756;6.994;2022-09-23T11:14:23;15.60;99.90
2022;DHT22;1015;49.756;6.994;2022-09-23T11:17:09;15.50;99.90
2022;DHT22;1015;49.756;6.994;2022-09-23T11:19:55;15.50;99.90
2022;DHT22;1015;49.756;6.994;2022-09-23T11:22:40;15.50;99.90
2022;DHT22;1015;49.756;6.994;2022-09-23T11:25:28;15.40;99.90
2022;DHT22;1015;49.756;6.994;2022-09-23T11:28:10;15.20;99.90
2022;DHT22;1015;49.756;6.994;2022-09-23T11:30:49;15.10;99.90
2022;DHT22;1015;49.756;6.994;2022-09-23T11:33:35;14.80;99.90
2022;DHT22;1015;49.756;6.994;2022-09-23T11:36:09;14.80;99.90
2022;DHT22;1015;49.756;6.994;2022-09-23T11:38:41;15.40;99.90
2022;DHT22;1015;49.756;6.994;2022-09-23T11:41:14;16.00;99.90
2022;DHT22;1015;49.756;6.994;2022-09-23T11:43:45;16.50;99.90
2022;DHT22;1015;49.756;6.994;2022-09-23T11:46:26;16.20;99.90
2022;DHT22;1015;49.756;6.994;2022-09-23T11:49:03;16.20;99.90
2022;DHT22;1015;49.756;6.994;2022-09-23T11:51:38;16.00;99.90
2022;DHT22;1015;49.756;6.994;2022-09-23T11:54:11;16.20;99.90
2022;DHT22;1015;49.756;6.994;2022-09-23T11:56:44;15.90;99.90
2022;DHT22;1015;49.756;6.994;2022-09-23T11:59:14;15.70;99.90
2022;DHT22;1015;49.756;6.994;2022-09-23T12:01:48;15.80;99.90
2022;DHT22;1015;49.756;6.994;2022-09-23T12:04:23;15.50;99.90
2022;DHT22;1015;49.756;6.994;2022-09-23T12:06:55;15.70;99.90
2022;DHT22;1015;49.756;6.994;2022-09-23T12:09:31;15.60;99.90
2022;DHT22;1015;49.756;6.994;2022-09-23T12:12:05;15.40;99.90
2022;DHT22;1015;49.756;6.994;2022-09-23T12:14:55;15.20;99.90
2022;DHT22;1015;49.756;6.994;2022-09-23T12:17:40;15.10;99.90
2022;DHT22;1015;49.756;6.994;2022-09-23T12:20:39;15.10;99.90
2022;DHT22;1015;49.756;6.994;2022-09-23T12:23:18;15.20;99.90
2022;DHT22;1015;49.756;6.994;2022-09-23T12:25:53;15.30;99.90
2022;DHT22;1015;49.756;6.994;2022-09-23T12:28:24;15.60;99.90
2022;DHT22;1015;49.756;6.994;2022-09-23T12:30:54;15.70;99.90
2022;DHT22;1015;49.756;6.994;2022-09-23T12:33:24;15.60;99.90
2022;DHT22;1015;49.756;6.994;2022-09-23T12:35:54;15.40;99.90
2022;DHT22;1015;49.756;6.994;2022-09-23T12:38:24;15.60;99.90
2022;DHT22;1015;49.756;6.994;2022-09-23T12:40:53;16.00;99.90
2022;DHT22;1015;49.756;6.994;2022-09-23T12:43:27;16.20;99.90
2022;DHT22;1015;49.756;6.994;2022-09-23T12:46:16;16.30;99.90
2022;DHT22;1015;49.756;6.994;2022-09-23T12:48:57;16.60;99.90
2022;DHT22;1015;49.756;6.994;2022-09-23T12:51:27;16.90;99.90
2022;DHT22;1015;49.756;6.994;2022-09-23T12:56:59;16.80;99.90
2022;DHT22;1015;49.756;6.994;2022-09-23T12:59:28;16.60;99.90
2022;DHT22;1015;49.756;6.994;2022-09-23T13:01:55;16.60;99.90
2022;DHT22;1015;49.756;6.994;2022-09-23T13:04:28;16.10;99.90
2022;DHT22;1015;49.756;6.994;2022-09-23T13:07:16;16.40;99.90
2022;DHT22;1015;49.756;6.994;2022-09-23T13:09:47;16.60;99.90
2022;DHT22;1015;49.756;6.994;2022-09-23T13:12:18;16.40;99.90
2022;DHT22;1015;49.756;6.994;2022-09-23T13:14:49;16.60;99.90
2022;DHT22;1015;49.756;6.994;2022-09-23T13:17:25;16.50;99.90
2022;DHT22;1015;49.756;6.994;2022-09-23T13:20:00;16.40;99.90
2022;DHT22;1015;49.756;6.994;2022-09-23T13:23:02;16.60;99.90
2022;DHT22;1015;49.756;6.994;2022-09-23T13:25:32;16.60;99.90
2022;DHT22;1015;49.756;6.994;2022-09-23T13:28:01;16.70;99.90
2022;DHT22;1015;49.756;6.994;2022-09-23T13:30:28;16.50;99.90
2022;DHT22;1015;49.756;6.994;2022-09-23T13:33:09;16.60;99.90
2022;DHT22;1015;49.756;6.994;2022-09-23T13:35:39;16.60;99.90
2022;DHT22;1015;49.756;6.994;2022-09-23T13:38:19;16.60;99.90
2022;DHT22;1015;49.756;6.994;2022-09-23T13:40:49;17.30;99.90
2022;DHT22;1015;49.756;6.994;2022-09-23T13:43:20;17.30;99.90
2022;DHT22;1015;49.756;6.994;2022-09-23T13:45:49;16.70;99.90
2022;DHT22;1015;49.756;6.994;2022-09-23T13:48:17;16.80;99.90
2022;DHT22;1015;49.756;6.994;2022-09-23T13:50:47;16.40;99.90
2022;DHT22;1015;49.756;6.994;2022-09-23T13:53:21;16.00;99.90
2022;DHT22;1015;49.756;6.994;2022-09-23T13:55:59;15.50;99.90
2022;DHT22;1015;49.756;6.994;2022-09-23T13:58:28;15.50;99.90
2022;DHT22;1015;49.756;6.994;2022-09-23T14:00:55;15.40;99.90
2022;DHT22;1015;49.756;6.994;2022-09-23T14:03:25;15.30;99.90
2022;DHT22;1015;49.756;6.994;2022-09-23T14:05:53;15.40;99.90
2022;DHT22;1015;49.756;6.994;2022-09-23T14:08:22;15.30;99.90
2022;DHT22;1015;49.756;6.994;2022-09-23T14:10:50;15.20;99.90
2022;DHT22;1015;49.756;6.994;2022-09-23T14:13:21;15.30;99.90
2022;DHT22;1015;49.756;6.994;2022-09-23T14:15:49;15.50;99.90
2022;DHT22;1015;49.756;6.994;2022-09-23T14:18:25;15.30;99.90
2022;DHT22;1015;49.756;6.994;2022-09-23T14:20:53;15.20;99.90
2022;DHT22;1015;49.756;6.994;2022-09-23T14:23:21;15.20;99.90
2022;DHT22;1015;49.756;6.994;2022-09-23T14:25:49;15.30;99.90
2022;DHT22;1015;49.756;6.994;2022-09-23T14:28:19;15.30;99.90
2022;DHT22;1015;49.756;6.994;2022-09-23T14:30:49;15.40;99.90
2022;DHT22;1015;49.756;6.994;2022-09-23T14:33:17;15.60;99.90
2022;DHT22;1015;49.756;6.994;2022-09-23T14:35:49;15.50;99.90
2022;DHT22;1015;49.756;6.994;2022-09-23T14:38:25;15.60;99.90
2022;DHT22;1015;49.756;6.994;2022-09-23T14:41:22;15.60;99.90
2022;DHT22;1015;49.756;6.994;2022-09-23T14:43:55;15.90;99.90
2022;DHT22;1015;49.756;6.994;2022-09-23T14:46:24;15.90;99.90
2022;DHT22;1015;49.756;6.994;2022-09-23T14:48:55;16.00;99.90
2022;DHT22;1015;49.756;6.994;2022-09-23T14:51:33;16.00;99.90
2022;DHT22;1015;49.756;6.994;2022-09-23T14:54:29;15.60;99.90
2022;DHT22;1015;49.756;6.994;2022-09-23T14:56:58;15.80;99.90
2022;DHT22;1015;49.756;6.994;2022-09-23T14:59:27;15.90;99.90
2022;DHT22;1015;49.756;6.994;2022-09-23T15:01:57;15.60;99.90
2022;DHT22;1015;49.756;6.994;2022-09-23T15:04:29;15.50;99.90
2022;DHT22;1015;49.756;6.994;2022-09-23T15:07:00;15.80;99.90
2022;DHT22;1015;49.756;6.994;2022-09-23T15:09:31;15.80;99.90
2022;DHT22;1015;49.756;6.994;2022-09-23T15:12:01;15.80;99.90
2022;DHT22;1015;49.756;6.994;2022-09-23T15:14:32;15.50;99.90
2022;DHT22;1015;49.756;6.994;2022-09-23T15:17:04;15.50;99.90
2022;DHT22;1015;49.756;6.994;2022-09-23T15:19:33;15.50;99.90
2022;DHT22;1015;49.756;6.994;2022-09-23T15:22:01;15.40;99.90
2022;DHT22;1015;49.756;6.994;2022-09-23T15:24:40;15.40;99.90
2022;DHT22;1015;49.756;6.994;2022-09-23T15:27:26;15.30;99.90
2022;DHT22;1015;49.756;6.994;2022-09-23T15:29:59;15.30;99.90
2022;DHT22;1015;49.756;6.994;2022-09-23T15:32:27;15.50;99.90
2022;DHT22;1015;49.756;6.994;2022-09-23T15:34:54;15.50;99.90
2022;DHT22;1015;49.756;6.994;2022-09-23T15:37:21;15.20;99.90
2022;DHT22;1015;49.756;6.994;2022-09-23T15:39:51;15.50;99.90
2022;DHT22;1015;49.756;6.994;2022-09-23T15:42:18;15.40;99.90
2022;DHT22;1015;49.756;6.994;2022-09-23T15:44:45;15.30;99.90
2022;DHT22;1015;49.756;6.994;2022-09-23T15:47:15;15.00;99.90
2022;DHT22;1015;49.756;6.994;2022-09-23T15:49:44;15.00;99.90
2022;DHT22;1015;49.756;6.994;2022-09-23T15:52:12;14.90;99.90
2022;DHT22;1015;49.756;6.994;2022-09-23T15:54:41;14.70;99.90
2022;DHT22;1015;49.756;6.994;2022-09-23T15:57:11;14.60;99.90
2022;DHT22;1015;49.756;6.994;2022-09-23T15:59:37;14.60;99.90
2022;DHT22;1015;49.756;6.994;2022-09-23T16:02:14;14.70;99.90
2022;DHT22;1015;49.756;6.994;2022-09-23T16:04:42;14.70;99.90
2022;DHT22;1015;49.756;6.994;2022-09-23T16:07:14;14.60;99.90
2022;DHT22;1015;49.756;6.994;2022-09-23T16:09:42;14.50;99.90
2022;DHT22;1015;49.756;6.994;2022-09-23T16:12:11;14.40;99.90
2022;DHT22;1015;49.756;6.994;2022-09-23T16:14:39;14.30;99.90
2022;DHT22;1015;49.756;6.994;2022-09-23T16:17:07;14.20;99.90
2022;DHT22;1015;49.756;6.994;2022-09-23T16:19:36;14.10;99.90
2022;DHT22;1015;49.756;6.994;2022-09-23T16:22:03;14.10;99.90
2022;DHT22;1015;49.756;6.994;2022-09-23T16:24:30;14.00;99.90
2022;DHT22;1015;49.756;6.994;2022-09-23T16:26:57;13.90;99.90
2022;DHT22;1015;49.756;6.994;2022-09-23T16:29:29;13.70;99.90
2022;DHT22;1015;49.756;6.994;2022-09-23T16:31:56;13.70;99.90
2022;DHT22;1015;49.756;6.994;2022-09-23T16:34:25;13.60;99.90
2022;DHT22;1015;49.756;6.994;2022-09-23T16:36:53;13.40;99.90
2022;DHT22;1015;49.756;6.994;2022-09-23T16:39:19;13.40;99.90
2022;DHT22;1015;49.756;6.994;2022-09-23T16:41:47;13.50;99.90